sensor_id;sensor_type;location;lat;lon;timestamp;P1;durP1;ratioP1;P2;durP2;ratioP2
71413;SDS011;59226;53.212;5.728;2023-07-16T00:00:22;5.97;;;1.63;;
71413;SDS011;59226;53.212;5.728;2023-07-16T00:02:47;9.30;;;1.90;;
71413;SDS011;59226;53.212;5.728;2023-07-16T00:05:12;7.47;;;1.47;;
71413;SDS011;59226;53.212;5.728;2023-07-16T00:07:37;5.07;;;1.00;;
71413;SDS011;59226;53.212;5.728;2023-07-16T00:10:03;2.70;;;1.03;;
71413;SDS011;59226;53.212;5.728;2023-07-16T00:12:28;5.78;;;1.40;;
71413;SDS011;59226;53.212;5.728;2023-07-16T00:14:53;3.67;;;1.17;;
71413;SDS011;59226;53.212;5.728;2023-07-16T00:17:20;6.27;;;1.43;;
71413;SDS011;59226;53.212;5.728;2023-07-16T00:19:45;5.93;;;1.35;;
71413;SDS011;59226;53.212;5.728;2023-07-16T00:22:10;8.23;;;1.67;;
71413;SDS011;59226;53.212;5.728;2023-07-16T00:24:36;7.47;;;1.33;;
71413;SDS011;59226;53.212;5.728;2023-07-16T00:27:01;7.73;;;1.40;;
71413;SDS011;59226;53.212;5.728;2023-07-16T00:29:26;7.67;;;1.47;;
71413;SDS011;59226;53.212;5.728;2023-07-16T00:31:52;6.13;;;1.80;;
71413;SDS011;59226;53.212;5.728;2023-07-16T00:34:17;6.83;;;1.40;;
71413;SDS011;59226;53.212;5.728;2023-07-16T00:36:42;3.60;;;1.07;;
71413;SDS011;59226;53.212;5.728;2023-07-16T00:39:07;5.60;;;1.80;;
71413;SDS011;59226;53.212;5.728;2023-07-16T00:41:32;7.13;;;1.60;;
71413;SDS011;59226;53.212;5.728;2023-07-16T00:43:58;5.97;;;1.70;;
71413;SDS011;59226;53.212;5.728;2023-07-16T00:46:23;6.67;;;1.50;;
71413;SDS011;59226;53.212;5.728;2023-07-16T00:48:49;5.35;;;1.58;;
71413;SDS011;59226;53.212;5.728;2023-07-16T00:51:14;4.07;;;1.57;;
71413;SDS011;59226;53.212;5.728;2023-07-16T00:53:40;5.73;;;1.83;;
71413;SDS011;59226;53.212;5.728;2023-07-16T00:56:06;6.05;;;1.50;;
71413;SDS011;59226;53.212;5.728;2023-07-16T00:58:32;8.80;;;1.58;;
71413;SDS011;59226;53.212;5.728;2023-07-16T01:00:57;12.03;;;1.67;;
71413;SDS011;59226;53.212;5.728;2023-07-16T01:03:22;7.83;;;1.83;;
71413;SDS011;59226;53.212;5.728;2023-07-16T01:09:15;6.72;;;1.15;;
71413;SDS011;59226;53.212;5.728;2023-07-16T01:11:20;5.40;;;1.67;;
71413;SDS011;59226;53.212;5.728;2023-07-16T01:13:46;6.60;;;1.60;;
71413;SDS011;59226;53.212;5.728;2023-07-16T01:16:18;5.23;;;1.70;;
71413;SDS011;59226;53.212;5.728;2023-07-16T01:18:44;8.10;;;2.03;;
71413;SDS011;59226;53.212;5.728;2023-07-16T01:21:09;10.30;;;1.87;;
71413;SDS011;59226;53.212;5.728;2023-07-16T01:26:14;7.47;;;2.33;;
71413;SDS011;59226;53.212;5.728;2023-07-16T01:31:19;9.37;;;2.03;;
71413;SDS011;59226;53.212;5.728;2023-07-16T01:33:46;7.65;;;1.27;;
71413;SDS011;59226;53.212;5.728;2023-07-16T01:36:12;7.03;;;1.23;;
71413;SDS011;59226;53.212;5.728;2023-07-16T01:38:37;9.10;;;1.80;;
71413;SDS011;59226;53.212;5.728;2023-07-16T01:41:03;5.97;;;1.50;;
71413;SDS011;59226;53.212;5.728;2023-07-16T01:43:28;5.13;;;1.47;;
71413;SDS011;59226;53.212;5.728;2023-07-16T01:45:53;4.73;;;1.40;;
71413;SDS011;59226;53.212;5.728;2023-07-16T01:48:24;6.88;;;1.65;;
71413;SDS011;59226;53.212;5.728;2023-07-16T01:50:53;9.07;;;1.75;;
71413;SDS011;59226;53.212;5.728;2023-07-16T01:53:19;3.33;;;1.00;;
71413;SDS011;59226;53.212;5.728;2023-07-16T01:55:44;4.60;;;1.10;;
71413;SDS011;59226;53.212;5.728;2023-07-16T01:58:09;4.13;;;1.10;;
71413;SDS011;59226;53.212;5.728;2023-07-16T02:00:35;9.40;;;1.77;;
71413;SDS011;59226;53.212;5.728;2023-07-16T02:03:01;5.68;;;1.30;;
71413;SDS011;59226;53.212;5.728;2023-07-16T02:05:26;6.13;;;1.60;;
71413;SDS011;59226;53.212;5.728;2023-07-16T02:07:51;5.30;;;1.13;;
71413;SDS011;59226;53.212;5.728;2023-07-16T02:10:16;5.40;;;1.07;;
71413;SDS011;59226;53.212;5.728;2023-07-16T02:12:42;6.90;;;1.67;;
71413;SDS011;59226;53.212;5.728;2023-07-16T02:15:07;4.63;;;1.53;;
71413;SDS011;59226;53.212;5.728;2023-07-16T02:17:32;7.50;;;2.07;;
71413;SDS011;59226;53.212;5.728;2023-07-16T02:19:57;4.53;;;1.13;;
71413;SDS011;59226;53.212;5.728;2023-07-16T02:22:23;6.63;;;1.53;;
71413;SDS011;59226;53.212;5.728;2023-07-16T02:24:48;8.53;;;1.37;;
71413;SDS011;59226;53.212;5.728;2023-07-16T02:27:13;6.77;;;1.23;;
71413;SDS011;59226;53.212;5.728;2023-07-16T02:29:38;3.73;;;1.30;;
71413;SDS011;59226;53.212;5.728;2023-07-16T02:32:04;5.97;;;1.47;;
71413;SDS011;59226;53.212;5.728;2023-07-16T02:34:29;4.30;;;1.50;;
71413;SDS011;59226;53.212;5.728;2023-07-16T02:36:54;7.43;;;1.77;;
71413;SDS011;59226;53.212;5.728;2023-07-16T02:39:19;7.17;;;1.87;;
71413;SDS011;59226;53.212;5.728;2023-07-16T02:41:45;4.10;;;1.33;;
71413;SDS011;59226;53.212;5.728;2023-07-16T02:44:10;4.20;;;1.43;;
71413;SDS011;59226;53.212;5.728;2023-07-16T02:46:35;5.70;;;1.47;;
71413;SDS011;59226;53.212;5.728;2023-07-16T02:49:01;7.13;;;1.73;;
71413;SDS011;59226;53.212;5.728;2023-07-16T02:51:26;4.40;;;1.40;;
71413;SDS011;59226;53.212;5.728;2023-07-16T02:53:51;5.57;;;1.33;;
71413;SDS011;59226;53.212;5.728;2023-07-16T02:56:17;8.00;;;1.33;;
71413;SDS011;59226;53.212;5.728;2023-07-16T02:58:42;4.97;;;1.67;;
71413;SDS011;59226;53.212;5.728;2023-07-16T03:01:07;16.10;;;2.37;;
71413;SDS011;59226;53.212;5.728;2023-07-16T03:03:32;6.60;;;1.30;;
71413;SDS011;59226;53.212;5.728;2023-07-16T03:05:57;7.00;;;1.50;;
71413;SDS011;59226;53.212;5.728;2023-07-16T03:08:23;7.07;;;1.60;;
71413;SDS011;59226;53.212;5.728;2023-07-16T03:10:51;6.43;;;1.85;;
71413;SDS011;59226;53.212;5.728;2023-07-16T03:13:16;7.83;;;1.63;;
71413;SDS011;59226;53.212;5.728;2023-07-16T03:15:41;4.93;;;1.90;;
71413;SDS011;59226;53.212;5.728;2023-07-16T03:18:07;10.37;;;1.50;;
71413;SDS011;59226;53.212;5.728;2023-07-16T03:20:32;9.30;;;1.80;;
71413;SDS011;59226;53.212;5.728;2023-07-16T03:22:58;5.63;;;1.50;;
71413;SDS011;59226;53.212;5.728;2023-07-16T03:25:24;7.53;;;1.83;;
71413;SDS011;59226;53.212;5.728;2023-07-16T03:27:49;6.83;;;1.83;;
71413;SDS011;59226;53.212;5.728;2023-07-16T03:30:14;5.03;;;1.40;;
71413;SDS011;59226;53.212;5.728;2023-07-16T03:32:39;11.40;;;2.80;;
71413;SDS011;59226;53.212;5.728;2023-07-16T03:35:05;10.37;;;2.10;;
71413;SDS011;59226;53.212;5.728;2023-07-16T03:37:30;5.30;;;2.00;;
71413;SDS011;59226;53.212;5.728;2023-07-16T03:39:55;10.37;;;1.50;;
71413;SDS011;59226;53.212;5.728;2023-07-16T03:42:20;5.00;;;1.83;;
71413;SDS011;59226;53.212;5.728;2023-07-16T03:44:47;7.03;;;1.95;;
71413;SDS011;59226;53.212;5.728;2023-07-16T03:47:12;9.97;;;2.47;;
71413;SDS011;59226;53.212;5.728;2023-07-16T03:49:37;5.97;;;1.77;;
71413;SDS011;59226;53.212;5.728;2023-07-16T03:52:03;5.50;;;1.97;;
71413;SDS011;59226;53.212;5.728;2023-07-16T03:54:28;8.87;;;2.10;;
71413;SDS011;59226;53.212;5.728;2023-07-16T03:56:54;9.20;;;2.47;;
71413;SDS011;59226;53.212;5.728;2023-07-16T03:59:19;4.60;;;1.50;;
71413;SDS011;59226;53.212;5.728;2023-07-16T04:01:44;4.33;;;1.53;;
71413;SDS011;59226;53.212;5.728;2023-07-16T04:04:09;4.37;;;1.33;;
71413;SDS011;59226;53.212;5.728;2023-07-16T04:06:34;6.77;;;1.37;;
71413;SDS011;59226;53.212;5.728;2023-07-16T04:09:00;6.37;;;1.57;;
71413;SDS011;59226;53.212;5.728;2023-07-16T04:11:25;8.87;;;1.70;;
71413;SDS011;59226;53.212;5.728;2023-07-16T04:13:50;7.80;;;2.10;;
71413;SDS011;59226;53.212;5.728;2023-07-16T04:16:15;9.63;;;2.00;;
71413;SDS011;59226;53.212;5.728;2023-07-16T04:18:40;7.17;;;2.00;;
71413;SDS011;59226;53.212;5.728;2023-07-16T04:21:06;9.23;;;2.13;;
71413;SDS011;59226;53.212;5.728;2023-07-16T04:23:31;7.90;;;1.97;;
71413;SDS011;59226;53.212;5.728;2023-07-16T04:25:56;8.53;;;1.77;;
71413;SDS011;59226;53.212;5.728;2023-07-16T04:28:21;8.77;;;2.50;;
71413;SDS011;59226;53.212;5.728;2023-07-16T04:30:47;7.10;;;1.87;;
71413;SDS011;59226;53.212;5.728;2023-07-16T04:33:12;5.73;;;1.53;;
71413;SDS011;59226;53.212;5.728;2023-07-16T04:35:37;8.53;;;1.93;;
71413;SDS011;59226;53.212;5.728;2023-07-16T04:38:02;7.27;;;2.00;;
71413;SDS011;59226;53.212;5.728;2023-07-16T04:40:29;6.57;;;2.23;;
71413;SDS011;59226;53.212;5.728;2023-07-16T04:42:54;6.82;;;1.48;;
71413;SDS011;59226;53.212;5.728;2023-07-16T04:45:19;5.93;;;1.87;;
71413;SDS011;59226;53.212;5.728;2023-07-16T04:47:44;7.60;;;1.97;;
71413;SDS011;59226;53.212;5.728;2023-07-16T04:50:10;9.17;;;2.30;;
71413;SDS011;59226;53.212;5.728;2023-07-16T04:52:35;9.53;;;1.80;;
71413;SDS011;59226;53.212;5.728;2023-07-16T04:55:00;5.63;;;1.57;;
71413;SDS011;59226;53.212;5.728;2023-07-16T04:57:25;8.23;;;1.70;;
71413;SDS011;59226;53.212;5.728;2023-07-16T04:59:51;8.17;;;1.67;;
71413;SDS011;59226;53.212;5.728;2023-07-16T05:02:17;6.50;;;1.98;;
71413;SDS011;59226;53.212;5.728;2023-07-16T05:04:42;9.23;;;2.00;;
71413;SDS011;59226;53.212;5.728;2023-07-16T05:07:09;9.20;;;2.17;;
71413;SDS011;59226;53.212;5.728;2023-07-16T05:09:34;14.13;;;2.47;;
71413;SDS011;59226;53.212;5.728;2023-07-16T05:11:59;7.27;;;1.30;;
71413;SDS011;59226;53.212;5.728;2023-07-16T05:14:25;10.17;;;2.27;;
71413;SDS011;59226;53.212;5.728;2023-07-16T05:16:51;5.93;;;2.10;;
71413;SDS011;59226;53.212;5.728;2023-07-16T05:19:16;9.23;;;1.97;;
71413;SDS011;59226;53.212;5.728;2023-07-16T05:21:41;5.40;;;1.47;;
71413;SDS011;59226;53.212;5.728;2023-07-16T05:24:06;6.83;;;2.00;;
71413;SDS011;59226;53.212;5.728;2023-07-16T05:26:32;7.07;;;1.23;;
71413;SDS011;59226;53.212;5.728;2023-07-16T05:28:58;4.78;;;1.40;;
71413;SDS011;59226;53.212;5.728;2023-07-16T05:31:23;14.50;;;2.40;;
71413;SDS011;59226;53.212;5.728;2023-07-16T05:33:48;10.87;;;2.23;;
71413;SDS011;59226;53.212;5.728;2023-07-16T05:36:13;8.87;;;1.70;;
71413;SDS011;59226;53.212;5.728;2023-07-16T05:38:39;8.57;;;1.97;;
71413;SDS011;59226;53.212;5.728;2023-07-16T05:41:04;8.03;;;2.03;;
71413;SDS011;59226;53.212;5.728;2023-07-16T05:43:30;6.53;;;1.63;;
71413;SDS011;59226;53.212;5.728;2023-07-16T05:45:55;7.60;;;2.33;;
71413;SDS011;59226;53.212;5.728;2023-07-16T05:48:20;6.47;;;1.77;;
71413;SDS011;59226;53.212;5.728;2023-07-16T05:50:45;6.53;;;1.57;;
71413;SDS011;59226;53.212;5.728;2023-07-16T05:53:11;6.47;;;2.00;;
71413;SDS011;59226;53.212;5.728;2023-07-16T05:55:36;7.97;;;2.03;;
71413;SDS011;59226;53.212;5.728;2023-07-16T05:58:04;5.68;;;1.20;;
71413;SDS011;59226;53.212;5.728;2023-07-16T06:00:29;6.10;;;1.40;;
71413;SDS011;59226;53.212;5.728;2023-07-16T06:02:54;8.77;;;1.80;;
71413;SDS011;59226;53.212;5.728;2023-07-16T06:05:19;5.57;;;1.20;;
71413;SDS011;59226;53.212;5.728;2023-07-16T06:07:45;7.87;;;1.90;;
71413;SDS011;59226;53.212;5.728;2023-07-16T06:10:10;9.83;;;2.37;;
71413;SDS011;59226;53.212;5.728;2023-07-16T06:12:35;7.45;;;1.85;;
71413;SDS011;59226;53.212;5.728;2023-07-16T06:15:01;8.13;;;1.77;;
71413;SDS011;59226;53.212;5.728;2023-07-16T06:17:26;8.23;;;1.60;;
71413;SDS011;59226;53.212;5.728;2023-07-16T06:19:51;10.47;;;1.77;;
71413;SDS011;59226;53.212;5.728;2023-07-16T06:22:16;5.03;;;1.47;;
71413;SDS011;59226;53.212;5.728;2023-07-16T06:24:42;10.10;;;2.33;;
71413;SDS011;59226;53.212;5.728;2023-07-16T06:27:07;7.50;;;1.93;;
71413;SDS011;59226;53.212;5.728;2023-07-16T06:29:32;6.43;;;1.57;;
71413;SDS011;59226;53.212;5.728;2023-07-16T06:31:58;7.03;;;1.87;;
71413;SDS011;59226;53.212;5.728;2023-07-16T06:34:23;11.95;;;1.58;;
71413;SDS011;59226;53.212;5.728;2023-07-16T06:36:49;6.53;;;1.73;;
71413;SDS011;59226;53.212;5.728;2023-07-16T06:39:14;5.63;;;1.50;;
71413;SDS011;59226;53.212;5.728;2023-07-16T06:41:39;6.47;;;1.90;;
71413;SDS011;59226;53.212;5.728;2023-07-16T06:44:04;5.17;;;1.70;;
71413;SDS011;59226;53.212;5.728;2023-07-16T06:46:30;7.50;;;1.50;;
71413;SDS011;59226;53.212;5.728;2023-07-16T06:48:55;6.43;;;1.63;;
71413;SDS011;59226;53.212;5.728;2023-07-16T06:51:20;5.27;;;1.23;;
71413;SDS011;59226;53.212;5.728;2023-07-16T06:53:46;9.90;;;1.60;;
71413;SDS011;59226;53.212;5.728;2023-07-16T06:56:11;5.40;;;1.50;;
71413;SDS011;59226;53.212;5.728;2023-07-16T06:58:36;6.43;;;1.50;;
71413;SDS011;59226;53.212;5.728;2023-07-16T07:01:01;7.60;;;1.63;;
71413;SDS011;59226;53.212;5.728;2023-07-16T07:03:27;8.40;;;1.80;;
71413;SDS011;59226;53.212;5.728;2023-07-16T07:05:52;5.97;;;1.40;;
71413;SDS011;59226;53.212;5.728;2023-07-16T07:08:17;7.73;;;1.83;;
71413;SDS011;59226;53.212;5.728;2023-07-16T07:10:42;9.23;;;1.87;;
71413;SDS011;59226;53.212;5.728;2023-07-16T07:13:08;7.07;;;1.23;;
71413;SDS011;59226;53.212;5.728;2023-07-16T07:15:33;4.90;;;1.13;;
71413;SDS011;59226;53.212;5.728;2023-07-16T07:17:58;5.70;;;1.37;;
71413;SDS011;59226;53.212;5.728;2023-07-16T07:20:23;3.70;;;1.27;;
71413;SDS011;59226;53.212;5.728;2023-07-16T07:22:48;6.77;;;0.93;;
71413;SDS011;59226;53.212;5.728;2023-07-16T07:25:14;4.73;;;1.17;;
71413;SDS011;59226;53.212;5.728;2023-07-16T07:27:39;5.63;;;1.43;;
71413;SDS011;59226;53.212;5.728;2023-07-16T07:30:04;7.10;;;1.10;;
71413;SDS011;59226;53.212;5.728;2023-07-16T07:32:30;8.88;;;1.25;;
71413;SDS011;59226;53.212;5.728;2023-07-16T07:34:55;7.40;;;1.80;;
71413;SDS011;59226;53.212;5.728;2023-07-16T07:37:20;4.87;;;1.60;;
71413;SDS011;59226;53.212;5.728;2023-07-16T07:39:45;7.10;;;1.20;;
71413;SDS011;59226;53.212;5.728;2023-07-16T07:42:16;7.40;;;1.40;;
71413;SDS011;59226;53.212;5.728;2023-07-16T07:44:41;5.90;;;1.40;;
71413;SDS011;59226;53.212;5.728;2023-07-16T07:47:06;4.40;;;1.60;;
71413;SDS011;59226;53.212;5.728;2023-07-16T07:49:33;9.57;;;1.65;;
71413;SDS011;59226;53.212;5.728;2023-07-16T07:51:59;5.63;;;1.50;;
71413;SDS011;59226;53.212;5.728;2023-07-16T07:54:24;6.13;;;1.60;;
71413;SDS011;59226;53.212;5.728;2023-07-16T07:56:49;4.73;;;1.40;;
71413;SDS011;59226;53.212;5.728;2023-07-16T07:59:15;6.17;;;1.50;;
71413;SDS011;59226;53.212;5.728;2023-07-16T08:01:40;6.33;;;1.40;;
71413;SDS011;59226;53.212;5.728;2023-07-16T08:04:05;5.63;;;1.30;;
71413;SDS011;59226;53.212;5.728;2023-07-16T08:06:31;4.17;;;0.93;;
71413;SDS011;59226;53.212;5.728;2023-07-16T08:08:56;6.97;;;1.67;;
71413;SDS011;59226;53.212;5.728;2023-07-16T08:11:21;7.03;;;1.40;;
71413;SDS011;59226;53.212;5.728;2023-07-16T08:13:46;7.90;;;1.87;;
71413;SDS011;59226;53.212;5.728;2023-07-16T08:16:12;5.72;;;1.38;;
71413;SDS011;59226;53.212;5.728;2023-07-16T08:18:37;3.53;;;1.13;;
71413;SDS011;59226;53.212;5.728;2023-07-16T08:21:03;6.37;;;1.37;;
71413;SDS011;59226;53.212;5.728;2023-07-16T08:23:28;5.37;;;1.53;;
71413;SDS011;59226;53.212;5.728;2023-07-16T08:25:53;4.70;;;1.37;;
71413;SDS011;59226;53.212;5.728;2023-07-16T08:28:18;4.13;;;1.50;;
71413;SDS011;59226;53.212;5.728;2023-07-16T08:30:46;8.13;;;1.80;;
71413;SDS011;59226;53.212;5.728;2023-07-16T08:33:11;8.32;;;2.10;;
71413;SDS011;59226;53.212;5.728;2023-07-16T08:35:37;3.90;;;1.45;;
71413;SDS011;59226;53.212;5.728;2023-07-16T08:38:04;9.53;;;1.77;;
71413;SDS011;59226;53.212;5.728;2023-07-16T08:40:29;8.55;;;1.85;;
71413;SDS011;59226;53.212;5.728;2023-07-16T08:42:54;7.30;;;1.47;;
71413;SDS011;59226;53.212;5.728;2023-07-16T08:45:21;8.82;;;1.00;;
71413;SDS011;59226;53.212;5.728;2023-07-16T08:47:48;3.43;;;1.10;;
71413;SDS011;59226;53.212;5.728;2023-07-16T08:50:13;5.87;;;1.20;;
71413;SDS011;59226;53.212;5.728;2023-07-16T08:52:39;4.83;;;0.97;;
71413;SDS011;59226;53.212;5.728;2023-07-16T08:55:05;6.68;;;1.10;;
71413;SDS011;59226;53.212;5.728;2023-07-16T08:57:30;7.47;;;1.10;;
71413;SDS011;59226;53.212;5.728;2023-07-16T08:59:56;5.73;;;1.17;;
71413;SDS011;59226;53.212;5.728;2023-07-16T09:02:21;2.93;;;1.00;;
71413;SDS011;59226;53.212;5.728;2023-07-16T09:04:47;3.70;;;1.10;;
71413;SDS011;59226;53.212;5.728;2023-07-16T09:07:13;6.73;;;1.40;;
71413;SDS011;59226;53.212;5.728;2023-07-16T09:09:38;4.63;;;1.33;;
71413;SDS011;59226;53.212;5.728;2023-07-16T09:12:04;5.50;;;1.58;;
71413;SDS011;59226;53.212;5.728;2023-07-16T09:14:29;5.77;;;1.10;;
71413;SDS011;59226;53.212;5.728;2023-07-16T09:16:54;9.70;;;1.40;;
71413;SDS011;59226;53.212;5.728;2023-07-16T09:19:20;12.37;;;1.90;;
71413;SDS011;59226;53.212;5.728;2023-07-16T09:21:46;7.38;;;1.83;;
71413;SDS011;59226;53.212;5.728;2023-07-16T09:24:12;6.83;;;1.53;;
71413;SDS011;59226;53.212;5.728;2023-07-16T09:26:37;7.30;;;1.83;;
71413;SDS011;59226;53.212;5.728;2023-07-16T09:29:06;5.13;;;1.40;;
71413;SDS011;59226;53.212;5.728;2023-07-16T09:31:32;8.82;;;1.42;;
71413;SDS011;59226;53.212;5.728;2023-07-16T09:33:58;6.07;;;1.70;;
71413;SDS011;59226;53.212;5.728;2023-07-16T09:36:24;5.40;;;1.60;;
71413;SDS011;59226;53.212;5.728;2023-07-16T09:38:50;5.87;;;2.00;;
71413;SDS011;59226;53.212;5.728;2023-07-16T09:41:16;8.70;;;1.88;;
71413;SDS011;59226;53.212;5.728;2023-07-16T09:43:41;7.28;;;1.80;;
71413;SDS011;59226;53.212;5.728;2023-07-16T09:46:08;6.13;;;1.63;;
71413;SDS011;59226;53.212;5.728;2023-07-16T09:48:33;6.93;;;1.83;;
71413;SDS011;59226;53.212;5.728;2023-07-16T09:50:58;6.30;;;1.43;;
71413;SDS011;59226;53.212;5.728;2023-07-16T09:53:24;8.20;;;2.00;;
71413;SDS011;59226;53.212;5.728;2023-07-16T09:55:50;5.35;;;1.33;;
71413;SDS011;59226;53.212;5.728;2023-07-16T09:58:16;6.55;;;1.40;;
71413;SDS011;59226;53.212;5.728;2023-07-16T10:00:44;5.63;;;1.47;;
71413;SDS011;59226;53.212;5.728;2023-07-16T10:03:10;11.20;;;1.92;;
71413;SDS011;59226;53.212;5.728;2023-07-16T10:05:36;6.87;;;1.93;;
71413;SDS011;59226;53.212;5.728;2023-07-16T10:08:02;5.60;;;1.30;;
71413;SDS011;59226;53.212;5.728;2023-07-16T10:10:44;4.90;;;1.73;;
71413;SDS011;59226;53.212;5.728;2023-07-16T10:13:11;7.22;;;1.30;;
71413;SDS011;59226;53.212;5.728;2023-07-16T10:15:36;8.83;;;1.90;;
71413;SDS011;59226;53.212;5.728;2023-07-16T10:18:02;11.68;;;2.22;;
71413;SDS011;59226;53.212;5.728;2023-07-16T10:20:31;5.07;;;1.23;;
71413;SDS011;59226;53.212;5.728;2023-07-16T10:22:57;7.30;;;1.45;;
71413;SDS011;59226;53.212;5.728;2023-07-16T10:25:24;7.23;;;1.57;;
71413;SDS011;59226;53.212;5.728;2023-07-16T10:27:50;6.80;;;1.60;;
71413;SDS011;59226;53.212;5.728;2023-07-16T10:30:16;9.38;;;1.23;;
71413;SDS011;59226;53.212;5.728;2023-07-16T10:32:41;10.10;;;1.20;;
71413;SDS011;59226;53.212;5.728;2023-07-16T10:35:07;6.37;;;1.20;;
71413;SDS011;59226;53.212;5.728;2023-07-16T10:37:35;10.63;;;1.33;;
71413;SDS011;59226;53.212;5.728;2023-07-16T10:40:01;6.37;;;1.63;;
71413;SDS011;59226;53.212;5.728;2023-07-16T10:42:28;4.28;;;1.10;;
71413;SDS011;59226;53.212;5.728;2023-07-16T10:45:14;8.67;;;2.13;;
71413;SDS011;59226;53.212;5.728;2023-07-16T10:47:50;5.38;;;1.20;;
71413;SDS011;59226;53.212;5.728;2023-07-16T10:50:16;6.80;;;1.27;;
71413;SDS011;59226;53.212;5.728;2023-07-16T10:52:43;5.95;;;1.17;;
71413;SDS011;59226;53.212;5.728;2023-07-16T10:55:08;6.97;;;1.73;;
71413;SDS011;59226;53.212;5.728;2023-07-16T10:57:34;9.77;;;1.73;;
71413;SDS011;59226;53.212;5.728;2023-07-16T11:00:00;8.07;;;1.50;;
71413;SDS011;59226;53.212;5.728;2023-07-16T11:02:25;4.07;;;1.30;;
71413;SDS011;59226;53.212;5.728;2023-07-16T11:04:51;3.73;;;1.50;;
71413;SDS011;59226;53.212;5.728;2023-07-16T11:07:20;9.02;;;1.60;;
71413;SDS011;59226;53.212;5.728;2023-07-16T11:09:47;5.10;;;1.10;;
71413;SDS011;59226;53.212;5.728;2023-07-16T11:12:13;2.53;;;0.60;;
71413;SDS011;59226;53.212;5.728;2023-07-16T11:14:41;5.85;;;1.20;;
71413;SDS011;59226;53.212;5.728;2023-07-16T11:17:07;5.90;;;0.50;;
71413;SDS011;59226;53.212;5.728;2023-07-16T11:19:36;2.58;;;0.95;;
71413;SDS011;59226;53.212;5.728;2023-07-16T11:22:02;4.38;;;1.15;;
71413;SDS011;59226;53.212;5.728;2023-07-16T11:24:27;4.63;;;0.90;;
71413;SDS011;59226;53.212;5.728;2023-07-16T11:26:55;6.33;;;2.23;;
71413;SDS011;59226;53.212;5.728;2023-07-16T11:29:22;3.88;;;0.68;;
71413;SDS011;59226;53.212;5.728;2023-07-16T11:31:51;7.00;;;1.70;;
71413;SDS011;59226;53.212;5.728;2023-07-16T11:34:17;2.08;;;0.82;;
71413;SDS011;59226;53.212;5.728;2023-07-16T11:36:44;2.60;;;0.40;;
71413;SDS011;59226;53.212;5.728;2023-07-16T11:39:10;1.13;;;0.40;;
71413;SDS011;59226;53.212;5.728;2023-07-16T11:41:36;2.20;;;0.60;;
71413;SDS011;59226;53.212;5.728;2023-07-16T11:44:01;3.00;;;0.67;;
71413;SDS011;59226;53.212;5.728;2023-07-16T11:46:30;1.90;;;0.70;;
71413;SDS011;59226;53.212;5.728;2023-07-16T11:48:56;1.40;;;0.57;;
71413;SDS011;59226;53.212;5.728;2023-07-16T11:51:21;7.37;;;0.97;;
71413;SDS011;59226;53.212;5.728;2023-07-16T11:53:46;17.23;;;1.10;;
71413;SDS011;59226;53.212;5.728;2023-07-16T11:56:11;5.93;;;1.07;;
71413;SDS011;59226;53.212;5.728;2023-07-16T11:58:37;2.03;;;0.50;;
71413;SDS011;59226;53.212;5.728;2023-07-16T12:01:02;3.77;;;1.07;;
71413;SDS011;59226;53.212;5.728;2023-07-16T12:03:27;5.72;;;0.82;;
71413;SDS011;59226;53.212;5.728;2023-07-16T12:05:52;3.00;;;0.70;;
71413;SDS011;59226;53.212;5.728;2023-07-16T12:08:18;10.80;;;1.20;;
71413;SDS011;59226;53.212;5.728;2023-07-16T12:10:43;4.53;;;0.97;;
71413;SDS011;59226;53.212;5.728;2023-07-16T12:13:08;8.47;;;1.70;;
71413;SDS011;59226;53.212;5.728;2023-07-16T12:15:33;5.13;;;0.80;;
71413;SDS011;59226;53.212;5.728;2023-07-16T12:17:59;6.83;;;1.00;;
71413;SDS011;59226;53.212;5.728;2023-07-16T12:20:24;3.90;;;1.43;;
71413;SDS011;59226;53.212;5.728;2023-07-16T12:22:49;1.53;;;0.90;;
71413;SDS011;59226;53.212;5.728;2023-07-16T12:25:14;2.83;;;0.50;;
71413;SDS011;59226;53.212;5.728;2023-07-16T12:27:40;3.78;;;0.40;;
71413;SDS011;59226;53.212;5.728;2023-07-16T12:30:06;4.60;;;1.03;;
71413;SDS011;59226;53.212;5.728;2023-07-16T12:32:32;4.22;;;0.52;;
71413;SDS011;59226;53.212;5.728;2023-07-16T12:34:58;5.20;;;1.17;;
71413;SDS011;59226;53.212;5.728;2023-07-16T12:37:25;7.22;;;1.15;;
71413;SDS011;59226;53.212;5.728;2023-07-16T12:39:50;1.33;;;0.40;;
71413;SDS011;59226;53.212;5.728;2023-07-16T12:42:15;5.37;;;1.10;;
71413;SDS011;59226;53.212;5.728;2023-07-16T12:44:40;4.07;;;0.80;;
71413;SDS011;59226;53.212;5.728;2023-07-16T12:47:06;6.27;;;0.77;;
71413;SDS011;59226;53.212;5.728;2023-07-16T12:49:33;3.50;;;0.75;;
71413;SDS011;59226;53.212;5.728;2023-07-16T12:51:58;15.77;;;1.30;;
71413;SDS011;59226;53.212;5.728;2023-07-16T12:54:23;2.50;;;0.90;;
71413;SDS011;59226;53.212;5.728;2023-07-16T12:56:49;7.27;;;1.33;;
71413;SDS011;59226;53.212;5.728;2023-07-16T12:59:14;5.43;;;1.40;;
71413;SDS011;59226;53.212;5.728;2023-07-16T13:01:39;0.70;;;0.30;;
71413;SDS011;59226;53.212;5.728;2023-07-16T13:04:04;7.30;;;0.90;;
71413;SDS011;59226;53.212;5.728;2023-07-16T13:06:30;4.20;;;0.53;;
71413;SDS011;59226;53.212;5.728;2023-07-16T13:08:55;4.77;;;0.97;;
71413;SDS011;59226;53.212;5.728;2023-07-16T13:11:20;1.25;;;0.47;;
71413;SDS011;59226;53.212;5.728;2023-07-16T13:13:46;4.03;;;1.07;;
71413;SDS011;59226;53.212;5.728;2023-07-16T13:16:11;2.10;;;0.50;;
71413;SDS011;59226;53.212;5.728;2023-07-16T13:18:36;8.33;;;1.23;;
71413;SDS011;59226;53.212;5.728;2023-07-16T13:21:01;0.93;;;0.37;;
71413;SDS011;59226;53.212;5.728;2023-07-16T13:23:27;3.80;;;0.93;;
71413;SDS011;59226;53.212;5.728;2023-07-16T13:25:52;4.93;;;0.57;;
71413;SDS011;59226;53.212;5.728;2023-07-16T13:28:18;5.03;;;0.93;;
71413;SDS011;59226;53.212;5.728;2023-07-16T13:30:43;5.83;;;0.73;;
71413;SDS011;59226;53.212;5.728;2023-07-16T13:33:09;2.93;;;0.80;;
71413;SDS011;59226;53.212;5.728;2023-07-16T13:35:34;2.37;;;0.60;;
71413;SDS011;59226;53.212;5.728;2023-07-16T13:37:59;3.60;;;1.13;;
71413;SDS011;59226;53.212;5.728;2023-07-16T13:40:26;4.85;;;0.80;;
71413;SDS011;59226;53.212;5.728;2023-07-16T13:42:51;1.63;;;0.80;;
71413;SDS011;59226;53.212;5.728;2023-07-16T13:45:18;3.83;;;1.08;;
71413;SDS011;59226;53.212;5.728;2023-07-16T13:47:43;1.93;;;0.63;;
71413;SDS011;59226;53.212;5.728;2023-07-16T13:50:08;3.80;;;0.97;;
71413;SDS011;59226;53.212;5.728;2023-07-16T13:52:34;5.00;;;0.80;;
71413;SDS011;59226;53.212;5.728;2023-07-16T13:54:59;3.70;;;0.47;;
71413;SDS011;59226;53.212;5.728;2023-07-16T13:57:25;3.47;;;1.00;;
71413;SDS011;59226;53.212;5.728;2023-07-16T13:59:50;5.03;;;0.70;;
71413;SDS011;59226;53.212;5.728;2023-07-16T14:02:15;4.17;;;0.90;;
71413;SDS011;59226;53.212;5.728;2023-07-16T14:04:40;2.60;;;0.60;;
71413;SDS011;59226;53.212;5.728;2023-07-16T14:07:06;3.37;;;1.03;;
71413;SDS011;59226;53.212;5.728;2023-07-16T14:09:31;1.33;;;0.63;;
71413;SDS011;59226;53.212;5.728;2023-07-16T14:11:56;9.93;;;1.00;;
71413;SDS011;59226;53.212;5.728;2023-07-16T14:14:21;3.30;;;0.40;;
71413;SDS011;59226;53.212;5.728;2023-07-16T14:16:47;1.42;;;0.50;;
71413;SDS011;59226;53.212;5.728;2023-07-16T14:19:12;7.47;;;0.93;;
71413;SDS011;59226;53.212;5.728;2023-07-16T14:21:38;2.90;;;0.93;;
71413;SDS011;59226;53.212;5.728;2023-07-16T14:24:04;2.08;;;0.43;;
71413;SDS011;59226;53.212;5.728;2023-07-16T14:26:29;2.70;;;0.80;;
71413;SDS011;59226;53.212;5.728;2023-07-16T14:28:54;1.53;;;0.50;;
71413;SDS011;59226;53.212;5.728;2023-07-16T14:31:19;1.93;;;0.63;;
71413;SDS011;59226;53.212;5.728;2023-07-16T14:33:45;5.03;;;0.63;;
71413;SDS011;59226;53.212;5.728;2023-07-16T14:36:10;4.77;;;1.57;;
71413;SDS011;59226;53.212;5.728;2023-07-16T14:38:35;2.17;;;1.00;;
71413;SDS011;59226;53.212;5.728;2023-07-16T14:41:00;2.53;;;0.57;;
71413;SDS011;59226;53.212;5.728;2023-07-16T14:43:26;2.27;;;0.73;;
71413;SDS011;59226;53.212;5.728;2023-07-16T14:45:51;8.77;;;0.70;;